sensor_id;sensor_type;location;lat;lon;timestamp;P1;durP1;ratioP1;P2;durP2;ratioP2
8129;SDS011;4106;52.532;13.408;2022-08-14T00:02:01;4.95;;;4.45;;
8129;SDS011;4106;52.532;13.408;2022-08-14T00:04:29;4.55;;;4.22;;
8129;SDS011;4106;52.532;13.408;2022-08-14T00:06:56;4.62;;;4.20;;
8129;SDS011;4106;52.532;13.408;2022-08-14T00:09:24;4.12;;;3.83;;
8129;SDS011;4106;52.532;13.408;2022-08-14T00:11:51;4.53;;;3.95;;
8129;SDS011;4106;52.532;13.408;2022-08-14T00:14:18;4.25;;;3.95;;
8129;SDS011;4106;52.532;13.408;2022-08-14T00:16:46;4.37;;;4.07;;
8129;SDS011;4106;52.532;13.408;2022-08-14T00:19:13;4.45;;;4.12;;
8129;SDS011;4106;52.532;13.408;2022-08-14T00:21:41;4.72;;;4.07;;
8129;SDS011;4106;52.532;13.408;2022-08-14T00:24:08;4.10;;;3.70;;
8129;SDS011;4106;52.532;13.408;2022-08-14T00:26:36;5.30;;;3.97;;
8129;SDS011;4106;52.532;13.408;2022-08-14T00:29:04;4.57;;;4.12;;
8129;SDS011;4106;52.532;13.408;2022-08-14T00:31:32;4.50;;;4.20;;
8129;SDS011;4106;52.532;13.408;2022-08-14T00:33:59;5.10;;;4.00;;
8129;SDS011;4106;52.532;13.408;2022-08-14T00:36:26;4.35;;;3.95;;
8129;SDS011;4106;52.532;13.408;2022-08-14T00:38:53;5.22;;;4.53;;
8129;SDS011;4106;52.532;13.408;2022-08-14T00:41:20;4.50;;;4.18;;
8129;SDS011;4106;52.532;13.408;2022-08-14T00:43:48;4.62;;;4.00;;
8129;SDS011;4106;52.532;13.408;2022-08-14T00:46:15;4.40;;;4.10;;
8129;SDS011;4106;52.532;13.408;2022-08-14T00:48:42;4.72;;;4.32;;
8129;SDS011;4106;52.532;13.408;2022-08-14T00:51:10;5.10;;;4.60;;
8129;SDS011;4106;52.532;13.408;2022-08-14T00:53:37;4.78;;;4.47;;
8129;SDS011;4106;52.532;13.408;2022-08-14T00:56:05;3.90;;;3.62;;
8129;SDS011;4106;52.532;13.408;2022-08-14T00:58:33;5.28;;;4.20;;
8129;SDS011;4106;52.532;13.408;2022-08-14T01:01:02;5.03;;;4.07;;
8129;SDS011;4106;52.532;13.408;2022-08-14T01:03:28;4.55;;;4.18;;
8129;SDS011;4106;52.532;13.408;2022-08-14T01:05:56;4.85;;;4.30;;
8129;SDS011;4106;52.532;13.408;2022-08-14T01:08:25;4.43;;;4.03;;
8129;SDS011;4106;52.532;13.408;2022-08-14T01:10:51;5.05;;;4.65;;
8129;SDS011;4106;52.532;13.408;2022-08-14T01:13:21;5.18;;;4.68;;
8129;SDS011;4106;52.532;13.408;2022-08-14T01:15:51;4.65;;;4.25;;
8129;SDS011;4106;52.532;13.408;2022-08-14T01:18:15;4.07;;;3.78;;
8129;SDS011;4106;52.532;13.408;2022-08-14T01:20:48;5.15;;;4.78;;
8129;SDS011;4106;52.532;13.408;2022-08-14T01:23:21;4.30;;;3.90;;
8129;SDS011;4106;52.532;13.408;2022-08-14T01:25:49;4.43;;;4.07;;
8129;SDS011;4106;52.532;13.408;2022-08-14T01:28:16;5.18;;;4.78;;
8129;SDS011;4106;52.532;13.408;2022-08-14T01:30:43;5.60;;;4.87;;
8129;SDS011;4106;52.532;13.408;2022-08-14T01:33:10;5.30;;;4.75;;
8129;SDS011;4106;52.532;13.408;2022-08-14T01:35:37;4.37;;;4.07;;
8129;SDS011;4106;52.532;13.408;2022-08-14T01:38:04;4.45;;;4.15;;
8129;SDS011;4106;52.532;13.408;2022-08-14T01:40:32;5.78;;;4.47;;
8129;SDS011;4106;52.532;13.408;2022-08-14T01:42:59;5.30;;;4.80;;
8129;SDS011;4106;52.532;13.408;2022-08-14T01:45:26;4.97;;;4.62;;
8129;SDS011;4106;52.532;13.408;2022-08-14T01:47:53;5.07;;;4.57;;
8129;SDS011;4106;52.532;13.408;2022-08-14T01:50:21;4.95;;;4.55;;
8129;SDS011;4106;52.532;13.408;2022-08-14T01:52:48;6.03;;;4.30;;
8129;SDS011;4106;52.532;13.408;2022-08-14T01:55:15;5.00;;;4.37;;
8129;SDS011;4106;52.532;13.408;2022-08-14T01:57:43;5.28;;;4.80;;
8129;SDS011;4106;52.532;13.408;2022-08-14T02:00:10;5.12;;;4.72;;
8129;SDS011;4106;52.532;13.408;2022-08-14T02:02:38;4.90;;;4.50;;
8129;SDS011;4106;52.532;13.408;2022-08-14T02:05:07;5.05;;;4.43;;
8129;SDS011;4106;52.532;13.408;2022-08-14T02:07:34;4.95;;;4.53;;
8129;SDS011;4106;52.532;13.408;2022-08-14T02:10:02;5.95;;;4.53;;
8129;SDS011;4106;52.532;13.408;2022-08-14T02:12:29;5.07;;;4.50;;
8129;SDS011;4106;52.532;13.408;2022-08-14T02:14:58;4.45;;;4.05;;
8129;SDS011;4106;52.532;13.408;2022-08-14T02:17:26;4.97;;;4.57;;
8129;SDS011;4106;52.532;13.408;2022-08-14T02:19:54;4.60;;;4.30;;
8129;SDS011;4106;52.532;13.408;2022-08-14T02:22:21;5.55;;;4.55;;
8129;SDS011;4106;52.532;13.408;2022-08-14T02:24:48;5.12;;;4.70;;
8129;SDS011;4106;52.532;13.408;2022-08-14T02:27:15;4.87;;;4.55;;
8129;SDS011;4106;52.532;13.408;2022-08-14T02:29:42;4.80;;;4.43;;
8129;SDS011;4106;52.532;13.408;2022-08-14T02:32:10;4.45;;;4.15;;
8129;SDS011;4106;52.532;13.408;2022-08-14T02:34:37;4.80;;;4.40;;
8129;SDS011;4106;52.532;13.408;2022-08-14T02:37:05;5.32;;;4.90;;
8129;SDS011;4106;52.532;13.408;2022-08-14T02:39:32;5.10;;;4.60;;
8129;SDS011;4106;52.532;13.408;2022-08-14T02:41:59;4.68;;;4.30;;
8129;SDS011;4106;52.532;13.408;2022-08-14T02:44:26;4.68;;;4.37;;
8129;SDS011;4106;52.532;13.408;2022-08-14T02:46:54;4.70;;;4.40;;
8129;SDS011;4106;52.532;13.408;2022-08-14T02:49:22;4.30;;;4.00;;
8129;SDS011;4106;52.532;13.408;2022-08-14T02:51:50;5.55;;;4.45;;
8129;SDS011;4106;52.532;13.408;2022-08-14T02:54:18;4.90;;;4.50;;
8129;SDS011;4106;52.532;13.408;2022-08-14T02:56:45;4.70;;;4.28;;
8129;SDS011;4106;52.532;13.408;2022-08-14T02:59:13;5.00;;;4.60;;
8129;SDS011;4106;52.532;13.408;2022-08-14T03:01:40;5.03;;;4.60;;
8129;SDS011;4106;52.532;13.408;2022-08-14T03:04:07;4.78;;;4.47;;
8129;SDS011;4106;52.532;13.408;2022-08-14T03:06:34;5.43;;;5.03;;
8129;SDS011;4106;52.532;13.408;2022-08-14T03:09:01;4.75;;;4.30;;
8129;SDS011;4106;52.532;13.408;2022-08-14T03:11:29;5.05;;;4.65;;
8129;SDS011;4106;52.532;13.408;2022-08-14T03:13:57;5.87;;;4.80;;
8129;SDS011;4106;52.532;13.408;2022-08-14T03:16:24;8.95;;;4.72;;
8129;SDS011;4106;52.532;13.408;2022-08-14T03:18:52;4.47;;;4.07;;
8129;SDS011;4106;52.532;13.408;2022-08-14T03:21:20;6.18;;;4.40;;
8129;SDS011;4106;52.532;13.408;2022-08-14T03:23:48;4.65;;;4.35;;
8129;SDS011;4106;52.532;13.408;2022-08-14T03:26:16;5.22;;;4.72;;
8129;SDS011;4106;52.532;13.408;2022-08-14T03:28:42;4.85;;;4.45;;
8129;SDS011;4106;52.532;13.408;2022-08-14T03:31:09;4.72;;;4.20;;
8129;SDS011;4106;52.532;13.408;2022-08-14T03:33:37;5.50;;;5.10;;
8129;SDS011;4106;52.532;13.408;2022-08-14T03:36:04;5.65;;;4.75;;
8129;SDS011;4106;52.532;13.408;2022-08-14T03:38:31;5.55;;;5.10;;
8129;SDS011;4106;52.532;13.408;2022-08-14T03:40:59;5.30;;;4.90;;
8129;SDS011;4106;52.532;13.408;2022-08-14T03:43:27;4.90;;;4.53;;
8129;SDS011;4106;52.532;13.408;2022-08-14T03:45:55;5.18;;;4.78;;
8129;SDS011;4106;52.532;13.408;2022-08-14T03:48:22;5.75;;;5.15;;
8129;SDS011;4106;52.532;13.408;2022-08-14T03:50:50;5.20;;;4.80;;
8129;SDS011;4106;52.532;13.408;2022-08-14T03:53:17;4.95;;;4.55;;
8129;SDS011;4106;52.532;13.408;2022-08-14T03:55:44;5.55;;;5.15;;
8129;SDS011;4106;52.532;13.408;2022-08-14T03:58:12;5.57;;;5.07;;
8129;SDS011;4106;52.532;13.408;2022-08-14T04:00:39;6.03;;;5.43;;
8129;SDS011;4106;52.532;13.408;2022-08-14T04:03:08;6.10;;;5.57;;
8129;SDS011;4106;52.532;13.408;2022-08-14T04:05:34;5.87;;;5.37;;
8129;SDS011;4106;52.532;13.408;2022-08-14T04:08:01;5.32;;;4.82;;
8129;SDS011;4106;52.532;13.408;2022-08-14T04:10:28;5.35;;;4.93;;
8129;SDS011;4106;52.532;13.408;2022-08-14T04:12:56;6.85;;;5.32;;
8129;SDS011;4106;52.532;13.408;2022-08-14T04:15:24;5.55;;;5.07;;
8129;SDS011;4106;52.532;13.408;2022-08-14T04:17:52;5.07;;;4.70;;
8129;SDS011;4106;52.532;13.408;2022-08-14T04:20:20;4.97;;;4.53;;
8129;SDS011;4106;52.532;13.408;2022-08-14T04:22:47;5.72;;;5.28;;
8129;SDS011;4106;52.532;13.408;2022-08-14T04:25:14;5.45;;;4.95;;
8129;SDS011;4106;52.532;13.408;2022-08-14T04:27:42;4.78;;;4.37;;
8129;SDS011;4106;52.532;13.408;2022-08-14T04:30:09;5.12;;;4.80;;
8129;SDS011;4106;52.532;13.408;2022-08-14T04:32:37;5.12;;;4.57;;
8129;SDS011;4106;52.532;13.408;2022-08-14T04:35:04;5.40;;;5.05;;
8129;SDS011;4106;52.532;13.408;2022-08-14T04:37:31;5.47;;;4.97;;
8129;SDS011;4106;52.532;13.408;2022-08-14T04:40:04;5.15;;;4.62;;
8129;SDS011;4106;52.532;13.408;2022-08-14T04:42:38;5.80;;;5.30;;
8129;SDS011;4106;52.532;13.408;2022-08-14T04:45:10;5.80;;;5.30;;
8129;SDS011;4106;52.532;13.408;2022-08-14T04:47:38;5.62;;;5.12;;
8129;SDS011;4106;52.532;13.408;2022-08-14T04:50:11;5.75;;;4.93;;
8129;SDS011;4106;52.532;13.408;2022-08-14T04:52:38;5.60;;;5.00;;
8129;SDS011;4106;52.532;13.408;2022-08-14T04:55:06;4.85;;;4.45;;
8129;SDS011;4106;52.532;13.408;2022-08-14T04:57:33;5.43;;;4.80;;
8129;SDS011;4106;52.532;13.408;2022-08-14T05:00:01;5.10;;;4.57;;
8129;SDS011;4106;52.532;13.408;2022-08-14T05:02:29;5.60;;;5.00;;
8129;SDS011;4106;52.532;13.408;2022-08-14T05:04:56;5.35;;;4.85;;
8129;SDS011;4106;52.532;13.408;2022-08-14T05:07:24;5.22;;;4.72;;
8129;SDS011;4106;52.532;13.408;2022-08-14T05:09:52;5.75;;;5.25;;
8129;SDS011;4106;52.532;13.408;2022-08-14T05:12:19;5.97;;;5.37;;
8129;SDS011;4106;52.532;13.408;2022-08-14T05:14:46;5.93;;;5.43;;
8129;SDS011;4106;52.532;13.408;2022-08-14T05:17:13;5.47;;;4.97;;
8129;SDS011;4106;52.532;13.408;2022-08-14T05:19:40;5.43;;;5.03;;
8129;SDS011;4106;52.532;13.408;2022-08-14T05:22:08;5.20;;;4.80;;
8129;SDS011;4106;52.532;13.408;2022-08-14T05:24:35;5.40;;;4.87;;
8129;SDS011;4106;52.532;13.408;2022-08-14T05:27:02;5.05;;;4.65;;
8129;SDS011;4106;52.532;13.408;2022-08-14T05:29:30;5.97;;;5.57;;
8129;SDS011;4106;52.532;13.408;2022-08-14T05:31:57;6.00;;;5.20;;
8129;SDS011;4106;52.532;13.408;2022-08-14T05:34:24;5.12;;;4.72;;
8129;SDS011;4106;52.532;13.408;2022-08-14T05:36:52;5.25;;;4.82;;
8129;SDS011;4106;52.532;13.408;2022-08-14T05:39:19;4.62;;;4.28;;
8129;SDS011;4106;52.532;13.408;2022-08-14T05:41:46;5.37;;;4.97;;
8129;SDS011;4106;52.532;13.408;2022-08-14T05:44:13;5.82;;;5.10;;
8129;SDS011;4106;52.532;13.408;2022-08-14T05:46:40;5.40;;;5.03;;
8129;SDS011;4106;52.532;13.408;2022-08-14T05:49:08;4.95;;;4.55;;
8129;SDS011;4106;52.532;13.408;2022-08-14T05:51:35;5.95;;;5.37;;
8129;SDS011;4106;52.532;13.408;2022-08-14T05:54:02;6.35;;;5.25;;
8129;SDS011;4106;52.532;13.408;2022-08-14T05:56:29;6.00;;;5.37;;
8129;SDS011;4106;52.532;13.408;2022-08-14T05:58:56;5.95;;;5.45;;
8129;SDS011;4106;52.532;13.408;2022-08-14T06:01:24;5.82;;;5.25;;
8129;SDS011;4106;52.532;13.408;2022-08-14T06:03:51;5.50;;;5.10;;
8129;SDS011;4106;52.532;13.408;2022-08-14T06:06:18;5.72;;;5.32;;
8129;SDS011;4106;52.532;13.408;2022-08-14T06:08:45;8.10;;;5.65;;
8129;SDS011;4106;52.532;13.408;2022-08-14T06:11:13;6.00;;;5.50;;
8129;SDS011;4106;52.532;13.408;2022-08-14T06:13:40;6.12;;;5.53;;
8129;SDS011;4106;52.532;13.408;2022-08-14T06:16:07;7.18;;;5.55;;
8129;SDS011;4106;52.532;13.408;2022-08-14T06:18:34;6.20;;;5.60;;
8129;SDS011;4106;52.532;13.408;2022-08-14T06:21:02;6.20;;;5.70;;
8129;SDS011;4106;52.532;13.408;2022-08-14T06:23:29;7.60;;;6.80;;
8129;SDS011;4106;52.532;13.408;2022-08-14T06:25:56;8.43;;;6.30;;
8129;SDS011;4106;52.532;13.408;2022-08-14T06:28:23;6.05;;;5.55;;
8129;SDS011;4106;52.532;13.408;2022-08-14T06:30:50;6.43;;;5.80;;
8129;SDS011;4106;52.532;13.408;2022-08-14T06:33:18;6.55;;;5.97;;
8129;SDS011;4106;52.532;13.408;2022-08-14T06:35:45;6.32;;;5.72;;
8129;SDS011;4106;52.532;13.408;2022-08-14T06:38:15;5.53;;;5.12;;
8129;SDS011;4106;52.532;13.408;2022-08-14T06:40:42;7.22;;;6.10;;
8129;SDS011;4106;52.532;13.408;2022-08-14T06:43:10;5.30;;;4.80;;
8129;SDS011;4106;52.532;13.408;2022-08-14T06:45:37;6.43;;;5.80;;
8129;SDS011;4106;52.532;13.408;2022-08-14T06:48:10;6.70;;;6.05;;
8129;SDS011;4106;52.532;13.408;2022-08-14T06:50:46;6.35;;;5.85;;
8129;SDS011;4106;52.532;13.408;2022-08-14T06:53:13;7.68;;;6.10;;
8129;SDS011;4106;52.532;13.408;2022-08-14T06:55:41;6.28;;;5.68;;
8129;SDS011;4106;52.532;13.408;2022-08-14T06:58:10;6.40;;;5.80;;
8129;SDS011;4106;52.532;13.408;2022-08-14T07:00:37;5.03;;;4.70;;
8129;SDS011;4106;52.532;13.408;2022-08-14T07:03:05;6.55;;;5.90;;
8129;SDS011;4106;52.532;13.408;2022-08-14T07:05:38;5.40;;;5.03;;
8129;SDS011;4106;52.532;13.408;2022-08-14T07:08:14;5.87;;;5.43;;
8129;SDS011;4106;52.532;13.408;2022-08-14T07:10:44;7.43;;;5.40;;
8129;SDS011;4106;52.532;13.408;2022-08-14T07:13:12;6.30;;;5.80;;
8129;SDS011;4106;52.532;13.408;2022-08-14T07:15:39;6.18;;;5.70;;
8129;SDS011;4106;52.532;13.408;2022-08-14T07:18:06;6.03;;;5.53;;
8129;SDS011;4106;52.532;13.408;2022-08-14T07:20:33;6.07;;;5.50;;
8129;SDS011;4106;52.532;13.408;2022-08-14T07:23:02;6.22;;;5.72;;
8129;SDS011;4106;52.532;13.408;2022-08-14T07:25:29;5.93;;;5.45;;
8129;SDS011;4106;52.532;13.408;2022-08-14T07:27:57;8.07;;;6.15;;
8129;SDS011;4106;52.532;13.408;2022-08-14T07:30:25;5.95;;;5.53;;
8129;SDS011;4106;52.532;13.408;2022-08-14T07:32:53;6.15;;;5.65;;
8129;SDS011;4106;52.532;13.408;2022-08-14T07:35:20;6.32;;;5.50;;
8129;SDS011;4106;52.532;13.408;2022-08-14T07:37:47;10.93;;;6.35;;
8129;SDS011;4106;52.532;13.408;2022-08-14T07:40:15;9.35;;;5.90;;
8129;SDS011;4106;52.532;13.408;2022-08-14T07:42:42;9.48;;;5.60;;
8129;SDS011;4106;52.532;13.408;2022-08-14T07:45:09;8.07;;;5.65;;
8129;SDS011;4106;52.532;13.408;2022-08-14T07:47:38;6.55;;;5.95;;
8129;SDS011;4106;52.532;13.408;2022-08-14T07:50:11;7.18;;;6.47;;
8129;SDS011;4106;52.532;13.408;2022-08-14T07:52:37;5.53;;;5.12;;
8129;SDS011;4106;52.532;13.408;2022-08-14T07:55:04;6.57;;;5.85;;
8129;SDS011;4106;52.532;13.408;2022-08-14T07:57:33;11.02;;;6.40;;
8129;SDS011;4106;52.532;13.408;2022-08-14T08:00:00;6.37;;;5.53;;
8129;SDS011;4106;52.532;13.408;2022-08-14T08:02:29;6.07;;;5.57;;
8129;SDS011;4106;52.532;13.408;2022-08-14T08:04:56;5.85;;;5.15;;
8129;SDS011;4106;52.532;13.408;2022-08-14T08:07:25;6.85;;;5.82;;
8129;SDS011;4106;52.532;13.408;2022-08-14T08:09:52;6.22;;;5.72;;
8129;SDS011;4106;52.532;13.408;2022-08-14T08:12:19;6.55;;;5.68;;
8129;SDS011;4106;52.532;13.408;2022-08-14T08:14:47;6.25;;;5.75;;
8129;SDS011;4106;52.532;13.408;2022-08-14T08:17:14;6.15;;;5.55;;
8129;SDS011;4106;52.532;13.408;2022-08-14T08:19:41;6.53;;;6.03;;
8129;SDS011;4106;52.532;13.408;2022-08-14T08:22:08;6.50;;;5.40;;
8129;SDS011;4106;52.532;13.408;2022-08-14T08:24:35;5.55;;;4.97;;
8129;SDS011;4106;52.532;13.408;2022-08-14T08:27:13;8.65;;;5.97;;
8129;SDS011;4106;52.532;13.408;2022-08-14T08:29:31;7.93;;;6.03;;
8129;SDS011;4106;52.532;13.408;2022-08-14T08:31:59;6.12;;;5.53;;
8129;SDS011;4106;52.532;13.408;2022-08-14T08:34:27;6.45;;;5.72;;
8129;SDS011;4106;52.532;13.408;2022-08-14T08:36:56;6.75;;;6.10;;
8129;SDS011;4106;52.532;13.408;2022-08-14T08:39:22;6.55;;;5.95;;
8129;SDS011;4106;52.532;13.408;2022-08-14T08:41:49;5.30;;;4.90;;
8129;SDS011;4106;52.532;13.408;2022-08-14T08:44:16;4.97;;;4.57;;
8129;SDS011;4106;52.532;13.408;2022-08-14T08:46:43;5.93;;;5.43;;
8129;SDS011;4106;52.532;13.408;2022-08-14T08:49:11;6.07;;;5.57;;
8129;SDS011;4106;52.532;13.408;2022-08-14T08:51:38;6.18;;;5.65;;
8129;SDS011;4106;52.532;13.408;2022-08-14T08:54:10;6.10;;;5.55;;
8129;SDS011;4106;52.532;13.408;2022-08-14T08:56:37;6.55;;;5.55;;
8129;SDS011;4106;52.532;13.408;2022-08-14T09:01:49;6.22;;;5.62;;
8129;SDS011;4106;52.532;13.408;2022-08-14T09:04:19;6.60;;;5.45;;
8129;SDS011;4106;52.532;13.408;2022-08-14T09:06:47;7.03;;;5.35;;
8129;SDS011;4106;52.532;13.408;2022-08-14T09:09:17;6.55;;;6.05;;
8129;SDS011;4106;52.532;13.408;2022-08-14T09:11:44;6.03;;;5.50;;
8129;SDS011;4106;52.532;13.408;2022-08-14T09:14:11;5.68;;;5.28;;
8129;SDS011;4106;52.532;13.408;2022-08-14T09:16:38;9.13;;;5.05;;
8129;SDS011;4106;52.532;13.408;2022-08-14T09:19:06;5.53;;;5.12;;
8129;SDS011;4106;52.532;13.408;2022-08-14T09:21:33;6.12;;;5.37;;
8129;SDS011;4106;52.532;13.408;2022-08-14T09:24:00;5.32;;;4.95;;
8129;SDS011;4106;52.532;13.408;2022-08-14T09:26:27;4.62;;;4.05;;
8129;SDS011;4106;52.532;13.408;2022-08-14T09:28:54;5.60;;;5.10;;
8129;SDS011;4106;52.532;13.408;2022-08-14T09:31:22;5.60;;;5.10;;
8129;SDS011;4106;52.532;13.408;2022-08-14T09:36:33;5.47;;;4.82;;
8129;SDS011;4106;52.532;13.408;2022-08-14T09:39:16;3.35;;;3.15;;
8129;SDS011;4106;52.532;13.408;2022-08-14T09:41:46;4.93;;;3.42;;
8129;SDS011;4106;52.532;13.408;2022-08-14T09:47:10;4.28;;;3.97;;
8129;SDS011;4106;52.532;13.408;2022-08-14T09:49:37;4.97;;;4.57;;
8129;SDS011;4106;52.532;13.408;2022-08-14T09:52:09;7.15;;;4.80;;
8129;SDS011;4106;52.532;13.408;2022-08-14T09:54:37;5.22;;;4.80;;
8129;SDS011;4106;52.532;13.408;2022-08-14T09:57:04;4.68;;;4.20;;
8129;SDS011;4106;52.532;13.408;2022-08-14T10:02:16;4.62;;;4.22;;
8129;SDS011;4106;52.532;13.408;2022-08-14T10:04:32;4.35;;;4.05;;
8129;SDS011;4106;52.532;13.408;2022-08-14T10:06:59;3.80;;;3.60;;
8129;SDS011;4106;52.532;13.408;2022-08-14T10:09:27;3.80;;;3.50;;
8129;SDS011;4106;52.532;13.408;2022-08-14T10:11:56;4.37;;;4.03;;
8129;SDS011;4106;52.532;13.408;2022-08-14T10:14:23;4.93;;;4.40;;
8129;SDS011;4106;52.532;13.408;2022-08-14T10:16:52;4.68;;;4.18;;
8129;SDS011;4106;52.532;13.408;2022-08-14T10:19:20;4.47;;;3.90;;
8129;SDS011;4106;52.532;13.408;2022-08-14T10:24:27;5.15;;;3.83;;
8129;SDS011;4106;52.532;13.408;2022-08-14T10:26:55;3.33;;;3.12;;
8129;SDS011;4106;52.532;13.408;2022-08-14T10:31:58;4.07;;;3.67;;
8129;SDS011;4106;52.532;13.408;2022-08-14T10:34:33;3.35;;;3.15;;
8129;SDS011;4106;52.532;13.408;2022-08-14T10:37:03;4.12;;;3.55;;
8129;SDS011;4106;52.532;13.408;2022-08-14T10:39:29;4.12;;;3.72;;
8129;SDS011;4106;52.532;13.408;2022-08-14T10:42:00;3.70;;;3.40;;
8129;SDS011;4106;52.532;13.408;2022-08-14T10:44:31;3.95;;;3.60;;
8129;SDS011;4106;52.532;13.408;2022-08-14T10:46:53;4.03;;;3.58;;
8129;SDS011;4106;52.532;13.408;2022-08-14T10:49:22;4.15;;;3.90;;
8129;SDS011;4106;52.532;13.408;2022-08-14T10:51:55;3.78;;;3.53;;
8129;SDS011;4106;52.532;13.408;2022-08-14T10:54:28;3.80;;;3.50;;
8129;SDS011;4106;52.532;13.408;2022-08-14T10:56:48;6.50;;;3.70;;
8129;SDS011;4106;52.532;13.408;2022-08-14T10:59:16;4.00;;;3.80;;
8129;SDS011;4106;52.532;13.408;2022-08-14T11:01:43;4.28;;;3.87;;
8129;SDS011;4106;52.532;13.408;2022-08-14T11:06:51;4.05;;;3.70;;
8129;SDS011;4106;52.532;13.408;2022-08-14T11:09:17;11.77;;;5.25;;
8129;SDS011;4106;52.532;13.408;2022-08-14T11:11:44;81.65;;;18.50;;
8129;SDS011;4106;52.532;13.408;2022-08-14T11:14:15;90.72;;;23.20;;
8129;SDS011;4106;52.532;13.408;2022-08-14T11:16:39;74.28;;;19.58;;
8129;SDS011;4106;52.532;13.408;2022-08-14T11:19:06;53.40;;;16.30;;
8129;SDS011;4106;52.532;13.408;2022-08-14T11:21:33;45.45;;;13.02;;
8129;SDS011;4106;52.532;13.408;2022-08-14T11:24:01;14.75;;;6.30;;
8129;SDS011;4106;52.532;13.408;2022-08-14T11:26:30;4.62;;;3.70;;
8129;SDS011;4106;52.532;13.408;2022-08-14T11:28:57;4.47;;;3.80;;
8129;SDS011;4106;52.532;13.408;2022-08-14T11:31:24;5.50;;;3.80;;
8129;SDS011;4106;52.532;13.408;2022-08-14T11:33:52;4.15;;;3.75;;
8129;SDS011;4106;52.532;13.408;2022-08-14T11:36:22;6.30;;;4.00;;
8129;SDS011;4106;52.532;13.408;2022-08-14T11:38:48;5.68;;;3.80;;
8129;SDS011;4106;52.532;13.408;2022-08-14T11:41:15;3.80;;;3.50;;
8129;SDS011;4106;52.532;13.408;2022-08-14T11:43:43;4.55;;;3.62;;
8129;SDS011;4106;52.532;13.408;2022-08-14T11:46:09;5.30;;;3.62;;
8129;SDS011;4106;52.532;13.408;2022-08-14T11:48:47;4.40;;;4.03;;
8129;SDS011;4106;52.532;13.408;2022-08-14T11:51:14;5.20;;;3.35;;
8129;SDS011;4106;52.532;13.408;2022-08-14T11:53:40;4.12;;;3.78;;
8129;SDS011;4106;52.532;13.408;2022-08-14T11:56:07;3.62;;;3.42;;
8129;SDS011;4106;52.532;13.408;2022-08-14T11:58:35;4.15;;;3.85;;
8129;SDS011;4106;52.532;13.408;2022-08-14T12:01:04;4.12;;;3.12;;
8129;SDS011;4106;52.532;13.408;2022-08-14T12:03:34;3.67;;;3.37;;
8129;SDS011;4106;52.532;13.408;2022-08-14T12:06:02;4.43;;;3.83;;
8129;SDS011;4106;52.532;13.408;2022-08-14T12:08:32;4.18;;;3.75;;
8129;SDS011;4106;52.532;13.408;2022-08-14T12:10:59;7.25;;;4.15;;
8129;SDS011;4106;52.532;13.408;2022-08-14T12:13:27;3.95;;;3.65;;
8129;SDS011;4106;52.532;13.408;2022-08-14T12:16:02;5.10;;;3.70;;
8129;SDS011;4106;52.532;13.408;2022-08-14T12:18:31;5.40;;;4.03;;
8129;SDS011;4106;52.532;13.408;2022-08-14T12:21:10;6.03;;;4.60;;
8129;SDS011;4106;52.532;13.408;2022-08-14T12:23:42;4.85;;;3.97;;
8129;SDS011;4106;52.532;13.408;2022-08-14T12:26:12;5.60;;;4.07;;
8129;SDS011;4106;52.532;13.408;2022-08-14T12:28:36;4.75;;;4.30;;
8129;SDS011;4106;52.532;13.408;2022-08-14T12:33:39;3.42;;;3.22;;
8129;SDS011;4106;52.532;13.408;2022-08-14T12:36:08;6.18;;;3.65;;
8129;SDS011;4106;52.532;13.408;2022-08-14T12:38:36;5.03;;;4.62;;
8129;SDS011;4106;52.532;13.408;2022-08-14T12:41:03;3.92;;;3.62;;
8129;SDS011;4106;52.532;13.408;2022-08-14T12:43:29;3.80;;;3.50;;
8129;SDS011;4106;52.532;13.408;2022-08-14T12:45:57;4.40;;;4.00;;
8129;SDS011;4106;52.532;13.408;2022-08-14T12:48:24;4.22;;;4.00;;
8129;SDS011;4106;52.532;13.408;2022-08-14T12:50:51;5.10;;;3.90;;
8129;SDS011;4106;52.532;13.408;2022-08-14T12:53:19;3.97;;;3.62;;
8129;SDS011;4106;52.532;13.408;2022-08-14T12:55:56;5.03;;;3.60;;
8129;SDS011;4106;52.532;13.408;2022-08-14T12:58:13;4.07;;;3.67;;
8129;SDS011;4106;52.532;13.408;2022-08-14T13:00:47;4.12;;;3.83;;
8129;SDS011;4106;52.532;13.408;2022-08-14T13:05:50;3.67;;;3.47;;
8129;SDS011;4106;52.532;13.408;2022-08-14T13:08:17;4.00;;;3.80;;
8129;SDS011;4106;52.532;13.408;2022-08-14T13:10:45;4.32;;;3.92;;
8129;SDS011;4106;52.532;13.408;2022-08-14T13:13:14;3.75;;;3.55;;
8129;SDS011;4106;52.532;13.408;2022-08-14T13:15:40;3.80;;;3.50;;
8129;SDS011;4106;52.532;13.408;2022-08-14T13:18:07;3.83;;;3.53;;
8129;SDS011;4106;52.532;13.408;2022-08-14T13:20:34;3.60;;;3.40;;
8129;SDS011;4106;52.532;13.408;2022-08-14T13:23:01;3.97;;;3.78;;
8129;SDS011;4106;52.532;13.408;2022-08-14T13:25:29;4.25;;;3.85;;
8129;SDS011;4106;52.532;13.408;2022-08-14T13:27:57;4.57;;;4.05;;
8129;SDS011;4106;52.532;13.408;2022-08-14T13:30:24;4.72;;;3.95;;
8129;SDS011;4106;52.532;13.408;2022-08-14T13:32:52;6.82;;;3.90;;
8129;SDS011;4106;52.532;13.408;2022-08-14T13:35:19;4.25;;;3.85;;
8129;SDS011;4106;52.532;13.408;2022-08-14T13:37:47;5.55;;;3.83;;
8129;SDS011;4106;52.532;13.408;2022-08-14T13:40:15;4.50;;;4.12;;
8129;SDS011;4106;52.532;13.408;2022-08-14T13:42:44;4.30;;;3.90;;
8129;SDS011;4106;52.532;13.408;2022-08-14T13:45:11;4.43;;;4.10;;
8129;SDS011;4106;52.532;13.408;2022-08-14T13:47:38;3.55;;;3.35;;
8129;SDS011;4106;52.532;13.408;2022-08-14T13:50:06;4.85;;;3.83;;
8129;SDS011;4106;52.532;13.408;2022-08-14T13:52:39;3.83;;;3.53;;
8129;SDS011;4106;52.532;13.408;2022-08-14T13:55:05;7.32;;;4.00;;
8129;SDS011;4106;52.532;13.408;2022-08-14T13:57:33;4.55;;;3.87;;
8129;SDS011;4106;52.532;13.408;2022-08-14T14:00:03;7.00;;;3.80;;
8129;SDS011;4106;52.532;13.408;2022-08-14T14:02:29;9.73;;;3.40;;
8129;SDS011;4106;52.532;13.408;2022-08-14T14:04:56;3.58;;;3.28;;
8129;SDS011;4106;52.532;13.408;2022-08-14T14:07:23;3.90;;;3.60;;
8129;SDS011;4106;52.532;13.408;2022-08-14T14:09:51;4.00;;;3.70;;
8129;SDS011;4106;52.532;13.408;2022-08-14T14:12:18;3.85;;;3.35;;
8129;SDS011;4106;52.532;13.408;2022-08-14T14:14:45;4.22;;;3.92;;
8129;SDS011;4106;52.532;13.408;2022-08-14T14:17:13;3.55;;;3.25;;
8129;SDS011;4106;52.532;13.408;2022-08-14T14:19:41;4.00;;;3.70;;
8129;SDS011;4106;52.532;13.408;2022-08-14T14:22:09;3.70;;;3.40;;
8129;SDS011;4106;52.532;13.408;2022-08-14T14:24:36;3.85;;;3.30;;
8129;SDS011;4106;52.532;13.408;2022-08-14T14:27:03;3.87;;;3.47;;
8129;SDS011;4106;52.532;13.408;2022-08-14T14:29:31;3.67;;;3.47;;
8129;SDS011;4106;52.532;13.408;2022-08-14T14:32:00;3.85;;;3.55;;
8129;SDS011;4106;52.532;13.408;2022-08-14T14:34:28;4.15;;;3.22;;
8129;SDS011;4106;52.532;13.408;2022-08-14T14:36:55;3.60;;;3.40;;
8129;SDS011;4106;52.532;13.408;2022-08-14T14:39:24;3.90;;;3.50;;
8129;SDS011;4106;52.532;13.408;2022-08-14T14:41:52;3.78;;;3.58;;
8129;SDS011;4106;52.532;13.408;2022-08-14T14:44:19;5.75;;;3.65;;
8129;SDS011;4106;52.532;13.408;2022-08-14T14:46:46;3.50;;;3.20;;
8129;SDS011;4106;52.532;13.408;2022-08-14T14:49:13;3.37;;;3.15;;
8129;SDS011;4106;52.532;13.408;2022-08-14T14:51:41;4.00;;;3.53;;
8129;SDS011;4106;52.532;13.408;2022-08-14T14:54:08;3.87;;;3.28;;
8129;SDS011;4106;52.532;13.408;2022-08-14T14:56:36;4.18;;;3.87;;
8129;SDS011;4106;52.532;13.408;2022-08-14T14:59:04;3.75;;;3.30;;
8129;SDS011;4106;52.532;13.408;2022-08-14T15:01:34;3.17;;;2.97;;
8129;SDS011;4106;52.532;13.408;2022-08-14T15:04:01;4.12;;;3.72;;
8129;SDS011;4106;52.532;13.408;2022-08-14T15:06:29;3.55;;;3.28;;
8129;SDS011;4106;52.532;13.408;2022-08-14T15:08:58;4.12;;;3.72;;
8129;SDS011;4106;52.532;13.408;2022-08-14T15:11:25;3.90;;;3.65;;
8129;SDS011;4106;52.532;13.408;2022-08-14T15:13:52;3.22;;;3.05;;
8129;SDS011;4106;52.532;13.408;2022-08-14T15:16:19;4.05;;;3.15;;
8129;SDS011;4106;52.532;13.408;2022-08-14T15:18:46;3.70;;;3.40;;
8129;SDS011;4106;52.532;13.408;2022-08-14T15:21:13;3.42;;;3.12;;
8129;SDS011;4106;52.532;13.408;2022-08-14T15:23:40;3.17;;;2.97;;
8129;SDS011;4106;52.532;13.408;2022-08-14T15:26:08;3.85;;;2.85;;
8129;SDS011;4106;52.532;13.408;2022-08-14T15:28:35;3.45;;;2.55;;